Air Quality Table

TIMESTAMP NO2 SO2 O3 CO TEMP HUM AIRPRES WS WD NO BENZENE
2022-06-26 09:00 26.56 µg/m3 1.86 µg/m3 43.9 µg/m3 0.27 mg/m3 33.74 °C 21.63 % 1,021.73 mbar 2.21 m/s 123.19 Deg 13.19 µg/m3 0.63 µg/m3
2022-06-26 08:00 32.9 µg/m3 2.14 µg/m3 35.36 µg/m3 0.38 mg/m3 28.73 °C 48.49 % 1,013.43 mbar 0.71 m/s 155.58 Deg 9.65 µg/m3 0.63 µg/m3
2022-06-26 07:00 32.81 µg/m3 1.68 µg/m3 22.77 µg/m3 0.3 mg/m3 26.21 °C 54.97 % 1,032.67 mbar 1.07 m/s 222.22 Deg 12.98 µg/m3 0.63 µg/m3
2022-06-26 06:00 36.13 µg/m3 1.09 µg/m3 15.54 µg/m3 0.25 mg/m3 25.03 °C 52.8 % 1,012.34 mbar 0.76 m/s 103.98 Deg 15.13 µg/m3 0.63 µg/m3
2022-06-26 05:00 32.14 µg/m3 0.84 µg/m3 22.38 µg/m3 0.22 mg/m3 25.43 °C 49.71 % 1,012.34 mbar 0.77 m/s 222.56 Deg 10.11 µg/m3 0.63 µg/m3
2022-06-26 04:00 36.91 µg/m3 0.43 µg/m3 19.59 µg/m3 0.21 mg/m3 25.5 °C 40.88 % 1,012.09 mbar 0.58 m/s 22 Deg 11.06 µg/m3 0.63 µg/m3
2022-06-26 03:00 50 µg/m3 1.35 µg/m3 16.9 µg/m3 0.16 mg/m3 24.93 °C 38.64 % 1,011.98 mbar 0.69 m/s 165.59 Deg 9.27 µg/m3 0.63 µg/m3
2022-06-26 02:00 33.04 µg/m3 1.48 µg/m3 23.29 µg/m3 0.31 mg/m3 25.66 °C 39.83 % 1,012.07 mbar 0.89 m/s 179.18 Deg 10.09 µg/m3 0.63 µg/m3
2022-06-26 01:00 49.27 µg/m3 1.74 µg/m3 14.73 µg/m3 0.37 mg/m3 25.99 °C 55.79 % 1,012.37 mbar 0.88 m/s 135.72 Deg 19.96 µg/m3 0.63 µg/m3
2022-06-26 00:00 60.28 µg/m3 1.86 µg/m3 7.38 µg/m3 0.42 mg/m3 26.5 °C 41.72 % 1,012.71 mbar 0.82 m/s 284.72 Deg 29.27 µg/m3 0.63 µg/m3
2022-06-25 23:00 58.07 µg/m3 1.91 µg/m3 11.73 µg/m3 0.46 mg/m3 26.05 °C 36.13 % 1,012.92 mbar 0.6 m/s 160.64 Deg 38.68 µg/m3 0.63 µg/m3
2022-06-25 22:00 67.64 µg/m3 1.92 µg/m3 5.85 µg/m3 0.55 mg/m3 27.27 °C 37.37 % 1,013.17 mbar 0.7 m/s 209.62 Deg 54.8 µg/m3 0.63 µg/m3
2022-06-25 21:00 60.11 µg/m3 1.6 µg/m3 11.67 µg/m3 0.43 mg/m3 27.7 °C 35.79 % 1,008.02 mbar 0.46 m/s 128.55 Deg 32.6 µg/m3 0.63 µg/m3
2022-06-25 20:00 63.15 µg/m3 1.57 µg/m3 16.9 µg/m3 0.42 mg/m3 29.88 °C 36.54 % 1,012.60 mbar 0.57 m/s 218.59 Deg 28.72 µg/m3 0.63 µg/m3
2022-06-25 19:00 30.77 µg/m3 1.42 µg/m3 55.83 µg/m3 0.29 mg/m3 31.89 °C 29.93 % 1,012.38 mbar 1.01 m/s 244.8 Deg 10.2 µg/m3 0.63 µg/m3
2022-06-25 18:00 28.15 µg/m3 2.01 µg/m3 66.24 µg/m3 0.39 mg/m3 32.94 °C 28.49 % 1,012.32 mbar 1.49 m/s 231.4 Deg 6.84 µg/m3 0.63 µg/m3
2022-06-25 17:00 28.57 µg/m3 1.78 µg/m3 63.81 µg/m3 0.35 mg/m3 32.84 °C 26.99 % 1,012.38 mbar 1.99 m/s 234.53 Deg 9.47 µg/m3 0.63 µg/m3
2022-06-25 16:00 26.95 µg/m3 1.1 µg/m3 67.81 µg/m3 0.6 mg/m3 29.61 °C 51.94 % 1,012.88 mbar 2.65 m/s 238.45 Deg 6.68 µg/m3 0.63 µg/m3
2022-06-25 15:00 28.09 µg/m3 1.54 µg/m3 51.67 µg/m3 0.4 mg/m3 28.99 °C 57.75 % 1,012.77 mbar 2.77 m/s 192.74 Deg 11.16 µg/m3 0.63 µg/m3
2022-06-25 14:00 25.12 µg/m3 1.3 µg/m3 42.72 µg/m3 0.39 mg/m3 27.36 °C 81.55 % 1,013.42 mbar 3.12 m/s 51.67 Deg 8.39 µg/m3 0.63 µg/m3
2022-06-25 13:00 24.54 µg/m3 0.77 µg/m3 35.56 µg/m3 0.32 mg/m3 27.31 °C 82.82 % 1,013.85 mbar 3.13 m/s 55.7 Deg 10.73 µg/m3 0.63 µg/m3
2022-06-25 12:00 29.33 µg/m3 1.82 µg/m3 39.91 µg/m3 0.31 mg/m3 28.21 °C 69.34 % 1,014.13 mbar 2.67 m/s 34.95 Deg 13.7 µg/m3 0.63 µg/m3
2022-06-25 11:00 32.66 µg/m3 2.21 µg/m3 36.89 µg/m3 0.29 mg/m3 29.38 °C 55.07 % 1,014.12 mbar 2.51 m/s 195.91 Deg 15.16 µg/m3 0.63 µg/m3

It is to be noted that the data is provisional and subject to quality assurance procedures. For validated data kindly refer your request to contact.air@era.org.mt